This is the latest recevied weather packets stored in our database for station/object DL3TR-13. If no packets are shown the sender has not sent any weather packets the latest 1 day(s).
| Time | Temp. | Humidity | Pressure | Rain* | Wind** | Luminosity | Snow |
|---|---|---|---|---|---|---|---|
| 1778064191 | 15.56° C | 67% | 1004.6 hPa | 0 mm | - | 364 W/m² | - |
| 1778061791 | 14.44° C | 75% | 1004.6 hPa | 0 mm | - | 671 W/m² | - |
| 1778059390 | 13.33° C | 76% | 1005.1 hPa | 0 mm | - | 250 W/m² | - |
| 1778057591 | 12.78° C | 78% | 1005.1 hPa | 0 mm | - | 287 W/m² | - |
| 1778053990 | 11.67° C | 85% | 1005.2 hPa | 0 mm | - | 216 W/m² | - |
| 1778052791 | 11.11° C | 88% | 1005.1 hPa | 0 mm | - | 134 W/m² | - |
| 1778051590 | 10.56° C | 90% | 1005.1 hPa | 0 mm | - | 114 W/m² | - |
| 1778049191 | 10.56° C | 90% | 1005.5 hPa | 0 mm | - | 114 W/m² | - |
| 1778046190 | 9.44° C | 92% | 1005.5 hPa | 0 mm | - | 102 W/m² | - |
| 1778044390 | 8.33° C | 93% | 1005.6 hPa | 0 mm | - | 70 W/m² | - |
| 1778043190 | 8.33° C | 94% | 1005.8 hPa | 0 mm | - | 46 W/m² | - |
| 1778041991 | 7.78° C | 93% | 1006 hPa | 0 mm | - | 32 W/m² | - |
| 1778040790 | 7.78° C | 93% | 1006.1 hPa | 0 mm | - | 7 W/m² | - |
| 1778040190 | 7.78° C | 93% | 1006.3 hPa | 0 mm | - | 0 W/m² | - |
| 1778039590 | 7.78° C | 93% | 1006.4 hPa | 0 mm | - | 0 W/m² | - |
| 1778038391 | 8.33° C | 93% | 1006.5 hPa | 0 mm | - | 0 W/m² | - |
| 1778037790 | 8.33° C | 94% | 1006.5 hPa | 0 mm | - | 0 W/m² | - |
| 1778037190 | 8.33° C | 94% | 1006.6 hPa | 0 mm | - | 0 W/m² | - |
| 1778036590 | 7.78° C | 93% | 1006.8 hPa | 0 mm | - | 0 W/m² | - |
| 1778035990 | 8.33° C | 93% | 1007.1 hPa | 0 mm | - | 0 W/m² | - |
| 1778035390 | 8.33° C | 94% | 1007.1 hPa | 0 mm | - | 0 W/m² | - |
| 1778034791 | 7.78° C | 93% | 1007.1 hPa | 0 mm | - | 0 W/m² | - |
| 1778034190 | 8.33° C | 93% | 1007.2 hPa | 0 mm | - | 0 W/m² | - |
| 1778033590 | 8.33° C | 93% | 1007.3 hPa | 0 mm | - | 0 W/m² | - |
| 1778032390 | 7.78° C | 92% | 1007.4 hPa | 0 mm | - | 0 W/m² | - |
* Rain latest hour (hover to see other rain measurements)
** Current wind speed in m/s (hover to see current wind gust speed)